Time;durP1;ratioP1;P1;durP2;ratioP2;P2;SDS_P1;SDS_P2;PMS_P1;PMS_P2;Temp;Humidity;BMP_temperature;BMP_pressure;BME280_temperature;BME280_humidity;BME280_pressure;Samples;Min_cycle;Max_cycle;Signal;HPM_P1;HPM_P2
2023/03/06 00:00:23;;;;;;;0.60;0.50;;;;;;;20.47;38.96;100843.06;5020315;28;20053;-69
2023/03/06 00:02:50;;;;;;;0.52;0.40;;;;;;;20.43;39.15;100833.53;5020645;28;20045;-69
2023/03/06 00:05:17;;;;;;;0.70;0.40;;;;;;;20.41;39.04;100828.25;5019046;28;20413;-69
2023/03/06 00:07:44;;;;;;;0.60;0.40;;;;;;;20.35;38.83;100830.78;5022189;28;20454;-69
2023/03/06 00:10:19;;;;;;;0.82;0.60;;;;;;;20.31;38.80;100825.66;5008760;28;20042;-69
2023/03/06 00:12:46;;;;;;;0.50;0.40;;;;;;;20.46;38.89;100822.28;5018887;28;20137;-70
2023/03/06 00:15:13;;;;;;;0.60;0.40;;;;;;;20.42;38.81;100816.31;5021726;28;20494;-69
2023/03/06 00:17:39;;;;;;;1.02;0.40;;;;;;;20.43;39.04;100814.44;5018532;28;20459;-69
2023/03/06 00:20:07;;;;;;;0.55;0.30;;;;;;;20.49;39.04;100820.03;5020195;28;20034;-69
2023/03/06 00:22:34;;;;;;;0.45;0.30;;;;;;;20.49;38.61;100821.91;5018916;28;20116;-69
2023/03/06 00:25:00;;;;;;;0.60;0.40;;;;;;;20.43;38.76;100812.56;5020646;28;20038;-69
2023/03/06 00:27:27;;;;;;;0.55;0.35;;;;;;;20.42;38.50;100804.53;5016005;28;20506;-69
2023/03/06 00:29:57;;;;;;;0.57;0.40;;;;;;;20.53;38.61;100801.44;5019015;28;20120;-69
2023/03/06 00:32:25;;;;;;;1.23;0.40;;;;;;;20.65;38.79;100807.38;5018145;28;20061;-69
2023/03/06 00:34:53;;;;;;;1.13;0.40;;;;;;;20.67;38.51;100808.06;5018027;28;20144;-69
2023/03/06 00:37:21;;;;;;;0.70;0.40;;;;;;;20.59;38.36;100806.22;5020960;28;20042;-69
2023/03/06 00:39:49;;;;;;;0.55;0.30;;;;;;;20.52;38.23;100797.88;5020097;28;20037;-69
2023/03/06 00:42:16;;;;;;;0.70;0.38;;;;;;;20.45;38.71;100793.28;5018154;28;20049;-69
2023/03/06 00:44:44;;;;;;;0.70;0.40;;;;;;;20.37;38.38;100796.00;5019522;28;20497;-69
2023/03/06 00:47:11;;;;;;;0.70;0.40;;;;;;;20.36;38.18;100789.69;5016412;28;20125;-69
2023/03/06 00:49:37;;;;;;;0.47;0.30;;;;;;;20.45;38.90;100791.41;5018247;28;20044;-69
2023/03/06 00:52:04;;;;;;;0.60;0.30;;;;;;;20.51;38.55;100790.72;5018667;28;20050;-69
2023/03/06 00:54:31;;;;;;;0.80;0.50;;;;;;;20.54;38.38;100778.59;5019045;28;20037;-69
2023/03/06 00:56:57;;;;;;;0.60;0.40;;;;;;;20.57;38.54;100778.25;5018929;28;20049;-69
2023/03/06 00:59:24;;;;;;;0.63;0.50;;;;;;;20.53;38.14;100772.28;5020469;28;20057;-69
2023/03/06 01:01:51;;;;;;;0.50;0.40;;;;;;;20.45;38.23;100776.91;5018181;28;20092;-69
2023/03/06 01:04:17;;;;;;;0.30;0.30;;;;;;;20.39;38.52;100774.84;5019445;28;20493;-70
2023/03/06 01:06:47;;;;;;;0.88;0.35;;;;;;;20.51;38.34;100766.16;5016927;28;20038;-69
2023/03/06 01:09:13;;;;;;;0.85;0.30;;;;;;;20.54;38.02;100773.13;5015448;28;20064;-69
2023/03/06 01:11:40;;;;;;;0.50;0.30;;;;;;;20.57;38.12;100770.06;5023345;28;20099;-69
2023/03/06 01:14:06;;;;;;;1.40;0.45;;;;;;;20.56;38.02;100762.91;5024562;28;20041;-69
2023/03/06 01:16:33;;;;;;;1.20;0.40;;;;;;;20.55;38.45;100766.66;5022838;28;20042;-69
2023/03/06 01:19:00;;;;;;;0.75;0.40;;;;;;;20.50;38.20;100767.19;5024684;28;20049;-69
2023/03/06 01:21:26;;;;;;;0.90;0.40;;;;;;;20.42;37.97;100760.91;5019978;28;20041;-68
2023/03/06 01:23:53;;;;;;;0.38;0.38;;;;;;;20.39;38.22;100764.81;5005826;28;20072;-69
2023/03/06 01:26:22;;;;;;;0.45;0.30;;;;;;;20.41;37.88;100764.66;5024001;28;20046;-69
2023/03/06 01:28:48;;;;;;;0.45;0.30;;;;;;;20.39;37.90;100759.38;5018358;28;20072;-69
2023/03/06 01:31:15;;;;;;;1.08;0.50;;;;;;;20.36;37.91;100764.28;5021561;28;20034;-69
2023/03/06 01:33:42;;;;;;;0.52;0.32;;;;;;;20.40;38.19;100762.94;5021947;28;20102;-69
2023/03/06 01:36:11;;;;;;;0.70;0.45;;;;;;;20.41;38.38;100760.06;5021555;28;20529;-69
2023/03/06 01:38:37;;;;;;;0.82;0.55;;;;;;;20.45;37.92;100764.13;5019063;28;20052;-69
2023/03/06 01:41:04;;;;;;;0.90;0.70;;;;;;;20.51;37.97;100757.13;5019251;28;20057;-69
2023/03/06 01:43:34;;;;;;;1.08;0.40;;;;;;;20.54;37.89;100752.16;5021088;28;20092;-69
2023/03/06 01:46:24;;;;;;;0.63;0.40;;;;;;;20.58;37.95;100755.38;5021541;28;20111;-69
2023/03/06 01:48:56;;;;;;;0.95;0.40;;;;;;;20.57;37.57;100746.34;5020593;28;20042;-69
2023/03/06 01:51:30;;;;;;;0.63;0.50;;;;;;;20.56;37.81;100739.19;5022004;28;20742;-69
2023/03/06 01:54:00;;;;;;;0.50;0.40;;;;;;;20.49;37.87;100738.19;5021267;28;20042;-69
2023/03/06 01:56:27;;;;;;;0.80;0.40;;;;;;;20.43;37.45;100725.25;5018750;28;20042;-69
2023/03/06 01:58:55;;;;;;;0.52;0.30;;;;;;;20.39;37.86;100737.56;5019653;28;20042;-69
2023/03/06 02:01:21;;;;;;;0.75;0.40;;;;;;;20.35;37.55;100727.13;5020466;28;20034;-69
2023/03/06 02:03:50;;;;;;;0.50;0.40;;;;;;;20.29;37.70;100728.69;5018918;28;20041;-69
2023/03/06 02:06:20;;;;;;;0.40;0.25;;;;;;;20.30;37.80;100723.06;5022080;28;20046;-69
2023/03/06 02:08:49;;;;;;;1.10;0.40;;;;;;;20.37;37.96;100717.75;5020560;28;20132;-69
2023/03/06 02:11:20;;;;;;;0.40;0.30;;;;;;;20.38;37.48;100716.72;5001949;28;20498;-69
2023/03/06 02:13:48;;;;;;;0.45;0.30;;;;;;;20.56;37.69;100713.78;5019843;28;20122;-69
2023/03/06 02:16:21;;;;;;;0.85;0.50;;;;;;;20.60;37.36;100709.69;5021110;28;20045;-69
2023/03/06 02:18:47;;;;;;;0.65;0.50;;;;;;;20.66;37.65;100708.13;5022207;28;20041;-69
2023/03/06 02:21:19;;;;;;;1.23;0.40;;;;;;;20.71;37.19;100698.38;5018204;28;20463;-69
2023/03/06 02:24:43;;;;;;;0.73;0.40;;;;;;;20.75;37.36;100698.84;5022730;28;20446;-69
2023/03/06 02:27:13;;;;;;;1.05;0.40;;;;;;;20.76;37.15;100701.41;4997733;28;20741;-69
2023/03/06 02:29:40;;;;;;;2.05;0.80;;;;;;;20.84;37.14;100689.63;4995160;28;20518;-68
2023/03/06 02:32:07;;;;;;;0.85;0.40;;;;;;;20.87;37.21;100686.53;5003372;28;20049;-69
2023/03/06 02:34:36;;;;;;;0.80;0.30;;;;;;;20.90;37.13;100680.72;5020431;28;20069;-69
2023/03/06 02:37:08;;;;;;;1.52;0.30;;;;;;;20.92;37.25;100681.38;5008204;28;20046;-69
2023/03/06 02:39:43;;;;;;;0.80;0.50;;;;;;;20.92;36.99;100684.97;5025097;28;20050;-69
2023/03/06 02:42:16;;;;;;;0.70;0.40;;;;;;;20.94;37.17;100676.59;5018718;28;20049;-69
2023/03/06 02:44:43;;;;;;;0.82;0.50;;;;;;;20.93;37.00;100677.63;5020227;28;20037;-69
2023/03/06 02:47:10;;;;;;;0.38;0.32;;;;;;;20.92;37.03;100679.50;5022799;28;20067;-69
2023/03/06 02:49:36;;;;;;;0.57;0.47;;;;;;;20.93;36.89;100680.38;5020438;28;20038;-69
2023/03/06 02:52:05;;;;;;;0.43;0.40;;;;;;;20.93;36.98;100680.38;5018583;28;20042;-69
2023/03/06 02:54:31;;;;;;;0.47;0.38;;;;;;;20.92;36.95;100681.38;5022327;28;20052;-69
2023/03/06 02:56:58;;;;;;;0.93;0.47;;;;;;;20.90;36.76;100681.56;5013109;28;20045;-69
2023/03/06 02:59:25;;;;;;;1.85;0.50;;;;;;;20.91;36.96;100676.97;5018763;28;20508;-69
2023/03/06 03:01:52;;;;;;;1.27;0.50;;;;;;;20.91;36.67;100679.69;5020083;28;20038;-69
2023/03/06 03:04:19;;;;;;;0.90;0.40;;;;;;;20.90;36.49;100678.84;5019088;28;20405;-69
2023/03/06 03:06:46;;;;;;;0.70;0.50;;;;;;;20.91;36.88;100676.97;5021097;28;20136;-69
2023/03/06 03:09:13;;;;;;;0.60;0.30;;;;;;;20.89;36.67;100676.28;5022316;28;20049;-69
2023/03/06 03:11:39;;;;;;;0.73;0.40;;;;;;;20.88;36.37;100667.25;5019693;28;20034;-69
2023/03/06 03:14:06;;;;;;;0.70;0.40;;;;;;;20.86;36.38;100666.59;5020100;28;20600;-69
2023/03/06 03:16:32;;;;;;;2.05;0.52;;;;;;;20.86;36.58;100661.13;5022505;28;20041;-69
2023/03/06 03:18:59;;;;;;;0.60;0.40;;;;;;;20.85;36.79;100659.44;5021885;28;20046;-69
2023/03/06 03:21:26;;;;;;;0.40;0.32;;;;;;;20.84;36.34;100660.44;5019026;28;20049;-69
2023/03/06 03:23:53;;;;;;;0.55;0.30;;;;;;;20.83;36.50;100656.03;5004803;28;20054;-69
2023/03/06 03:26:21;;;;;;;0.70;0.50;;;;;;;20.83;36.51;100647.00;5020754;28;20133;-69
2023/03/06 03:28:55;;;;;;;0.95;0.35;;;;;;;20.82;36.18;100646.13;5018515;28;20053;-69
2023/03/06 03:31:22;;;;;;;0.82;0.40;;;;;;;20.82;36.50;100642.56;5017493;28;20042;-69
2023/03/06 03:33:49;;;;;;;0.60;0.40;;;;;;;20.81;36.53;100636.25;5021547;28;20037;-69
2023/03/06 03:36:17;;;;;;;0.60;0.32;;;;;;;20.80;36.63;100631.78;5019278;28;20050;-68
2023/03/06 03:38:45;;;;;;;2.25;0.55;;;;;;;20.75;36.56;100626.03;5018861;28;20046;-69
2023/03/06 03:41:13;;;;;;;0.50;0.50;;;;;;;20.77;36.56;100628.56;5018715;28;20041;-69
2023/03/06 03:43:41;;;;;;;0.68;0.52;;;;;;;20.75;36.57;100631.47;5014908;28;20042;-69
2023/03/06 03:46:08;;;;;;;0.57;0.43;;;;;;;20.78;36.21;100622.09;5018854;28;20046;-69
2023/03/06 03:48:35;;;;;;;0.75;0.40;;;;;;;20.76;36.13;100614.06;5017965;28;20497;-69
2023/03/06 03:51:07;;;;;;;1.25;0.50;;;;;;;20.77;36.56;100612.19;5020099;28;20125;-69
2023/03/06 03:53:38;;;;;;;0.65;0.50;;;;;;;20.80;35.89;100611.84;5005898;28;20077;-69
2023/03/06 03:56:06;;;;;;;0.82;0.40;;;;;;;20.78;36.28;100608.44;5020893;28;20046;-69
2023/03/06 03:58:38;;;;;;;0.68;0.40;;;;;;;20.78;36.35;100608.44;5021056;28;20046;-69
2023/03/06 04:01:06;;;;;;;1.20;0.47;;;;;;;20.78;36.54;100605.72;5019691;28;20124;-69
2023/03/06 04:03:33;;;;;;;4.45;0.85;;;;;;;20.76;36.11;100608.63;5016300;28;20053;-69
2023/03/06 04:06:01;;;;;;;0.55;0.45;;;;;;;20.74;36.26;100604.38;5020886;28;20053;-69
2023/03/06 04:08:27;;;;;;;0.73;0.50;;;;;;;20.68;36.32;100597.75;5017839;28;20054;-69
2023/03/06 04:10:54;;;;;;;1.00;0.57;;;;;;;20.66;36.39;100604.44;5002845;28;20069;-69
2023/03/06 04:13:23;;;;;;;0.43;0.40;;;;;;;20.59;36.22;100596.09;5019640;28;20043;-69
2023/03/06 04:15:52;;;;;;;0.55;0.40;;;;;;;20.62;36.18;100595.75;5018428;28;20042;-69
2023/03/06 04:18:21;;;;;;;1.17;0.40;;;;;;;20.62;36.65;100595.75;5018821;28;20200;-69
2023/03/06 04:20:48;;;;;;;0.70;0.50;;;;;;;20.60;36.44;100589.63;5023004;28;20060;-69
2023/03/06 04:23:18;;;;;;;0.60;0.50;;;;;;;20.60;36.38;100592.34;5013208;28;20141;-69
2023/03/06 04:25:45;;;;;;;0.55;0.50;;;;;;;20.57;36.35;100593.56;5016056;28;20045;-69
2023/03/06 04:28:12;;;;;;;0.75;0.47;;;;;;;20.65;36.53;100589.94;5023983;28;20042;-69
2023/03/06 04:30:39;;;;;;;0.25;0.25;;;;;;;20.69;36.57;100583.09;5017378;28;20041;-69
2023/03/06 04:33:06;;;;;;;1.02;0.50;;;;;;;20.71;36.26;100582.91;5016667;28;20042;-69
2023/03/06 04:35:32;;;;;;;0.35;0.35;;;;;;;20.73;36.00;100576.22;5012443;28;20046;-69
2023/03/06 04:38:04;;;;;;;0.50;0.40;;;;;;;20.71;36.25;100575.56;5023491;28;20048;-69
2023/03/06 04:40:33;;;;;;;1.92;0.70;;;;;;;20.70;35.95;100576.59;5017916;28;20068;-70
2023/03/06 04:43:01;;;;;;;0.73;0.40;;;;;;;20.57;36.02;100577.19;5016473;28;20078;-69
2023/03/06 04:45:29;;;;;;;0.65;0.40;;;;;;;20.45;36.11;100583.25;5018693;28;20050;-69
2023/03/06 04:47:56;;;;;;;0.65;0.52;;;;;;;20.37;36.36;100577.78;5023535;28;20037;-69
2023/03/06 04:50:24;;;;;;;0.80;0.50;;;;;;;20.35;36.71;100579.84;5023112;28;20042;-69
2023/03/06 04:52:51;;;;;;;0.55;0.30;;;;;;;20.42;36.54;100575.41;5020577;28;20535;-69
2023/03/06 04:55:18;;;;;;;1.67;0.95;;;;;;;20.49;36.36;100576.41;5021229;28;20800;-69
2023/03/06 04:57:46;;;;;;;1.38;0.50;;;;;;;20.54;36.28;100571.25;5022306;28;20112;-69
2023/03/06 05:00:18;;;;;;;0.50;0.30;;;;;;;20.58;36.18;100572.59;5021463;28;20049;-69
2023/03/06 05:02:45;;;;;;;0.60;0.40;;;;;;;20.62;36.16;100568.47;5020783;28;20042;-69
2023/03/06 05:05:13;;;;;;;0.93;0.65;;;;;;;20.66;36.14;100572.53;5024750;28;20111;-69
2023/03/06 05:07:40;;;;;;;0.63;0.45;;;;;;;20.68;36.14;100567.75;5021779;28;20065;-69
2023/03/06 05:10:11;;;;;;;0.73;0.40;;;;;;;20.68;36.16;100565.00;5021021;28;20568;-69
2023/03/06 05:12:38;;;;;;;0.50;0.40;;;;;;;20.67;36.26;100567.91;5024211;28;20041;-69
2023/03/06 05:15:06;;;;;;;1.05;0.45;;;;;;;20.66;36.34;100564.34;5022999;28;20482;-69
2023/03/06 05:17:33;;;;;;;1.13;0.50;;;;;;;20.56;36.38;100566.47;5022253;28;20831;-69
2023/03/06 05:19:59;;;;;;;0.70;0.50;;;;;;;20.48;36.29;100558.31;5022951;28;20554;-69
2023/03/06 05:22:26;;;;;;;0.30;0.30;;;;;;;20.38;36.32;100554.94;5022144;28;20490;-69
2023/03/06 05:24:52;;;;;;;0.70;0.50;;;;;;;20.28;36.29;100556.03;5019563;28;20053;-69
2023/03/06 05:27:19;;;;;;;0.60;0.40;;;;;;;20.37;36.67;100550.53;5021279;28;20037;-69
2023/03/06 05:29:45;;;;;;;0.80;0.45;;;;;;;20.38;36.87;100550.34;5020221;28;20410;-69
2023/03/06 05:32:12;;;;;;;0.52;0.40;;;;;;;20.39;36.57;100548.47;5023906;28;20394;-69
2023/03/06 05:34:38;;;;;;;0.40;0.40;;;;;;;20.43;36.90;100547.94;5022977;28;20099;-69
2023/03/06 05:37:05;;;;;;;0.40;0.40;;;;;;;20.50;36.48;100553.53;5006083;28;20045;-69
2023/03/06 05:39:31;;;;;;;1.00;0.50;;;;;;;20.58;36.24;100548.03;5023226;28;20042;-69
2023/03/06 05:41:58;;;;;;;0.55;0.40;;;;;;;20.61;36.56;100542.22;5021781;28;20589;-69
2023/03/06 05:44:30;;;;;;;0.90;0.50;;;;;;;20.63;36.43;100541.00;5021535;28;20046;-69
2023/03/06 05:46:56;;;;;;;0.60;0.50;;;;;;;20.65;35.98;100534.50;5020677;28;20446;-69
2023/03/06 05:49:23;;;;;;;0.38;0.32;;;;;;;20.62;35.99;100533.84;5021220;28;20119;-70
2023/03/06 05:51:49;;;;;;;0.95;0.60;;;;;;;20.55;36.00;100529.28;5021326;28;20061;-69
2023/03/06 05:54:16;;;;;;;0.77;0.30;;;;;;;20.49;36.20;100528.13;5025169;28;20575;-69
2023/03/06 05:56:42;;;;;;;1.50;0.40;;;;;;;20.46;36.25;100533.97;5023147;28;20046;-69
2023/03/06 05:59:09;;;;;;;0.88;0.40;;;;;;;20.37;36.45;100529.56;5020096;28;20050;-69
2023/03/06 06:01:35;;;;;;;1.10;0.60;;;;;;;20.36;36.57;100527.00;5021722;28;20041;-69
2023/03/06 06:04:02;;;;;;;0.60;0.60;;;;;;;20.31;36.22;100528.41;5020916;28;20046;-69
2023/03/06 06:06:28;;;;;;;0.52;0.50;;;;;;;20.30;36.48;100526.69;5021846;28;20042;-69
2023/03/06 06:08:55;;;;;;;0.60;0.40;;;;;;;20.39;37.04;100526.66;5019839;28;20053;-69
2023/03/06 06:11:21;;;;;;;1.17;0.60;;;;;;;20.50;36.07;100534.44;5017835;28;20045;-69
2023/03/06 06:13:48;;;;;;;0.70;0.50;;;;;;;20.56;36.46;100531.84;5020982;28;20078;-69
2023/03/06 06:16:15;;;;;;;0.68;0.50;;;;;;;20.60;36.16;100530.44;5023452;28;20692;-69
2023/03/06 06:18:42;;;;;;;0.65;0.50;;;;;;;20.61;36.19;100534.03;5016318;28;20041;-69
2023/03/06 06:21:11;;;;;;;0.50;0.40;;;;;;;20.60;35.94;100535.06;5021109;28;20042;-69
2023/03/06 06:23:37;;;;;;;0.85;0.60;;;;;;;20.49;36.30;100538.19;5021808;28;20041;-69
2023/03/06 06:26:06;;;;;;;0.60;0.40;;;;;;;20.44;36.56;100532.44;5011815;28;20129;-69
2023/03/06 06:28:32;;;;;;;1.30;0.60;;;;;;;20.46;36.28;100535.84;5021128;28;20131;-69
2023/03/06 06:30:59;;;;;;;1.02;0.50;;;;;;;20.38;36.45;100536.69;5019723;28;20050;-69
2023/03/06 06:33:26;;;;;;;1.27;0.40;;;;;;;20.37;36.58;100534.16;5020498;28;20045;-69
2023/03/06 06:35:52;;;;;;;1.00;0.63;;;;;;;20.30;36.58;100529.41;5021425;28;20100;-69
2023/03/06 06:38:19;;;;;;;1.05;0.60;;;;;;;20.29;36.60;100527.72;5024116;28;20049;-69
2023/03/06 06:40:46;;;;;;;0.90;0.40;;;;;;;20.28;36.46;100526.03;5003288;28;20113;-69
2023/03/06 06:43:32;;;;;;;1.00;0.50;;;;;;;20.42;36.56;100520.84;5018124;28;20559;-69
2023/03/06 06:45:59;;;;;;;1.85;0.55;;;;;;;20.50;36.41;100518.91;5020059;28;20050;-69
2023/03/06 06:48:51;;;;;;;0.98;0.40;;;;;;;20.55;36.21;100519.22;5020278;28;20563;-69
2023/03/06 06:51:17;;;;;;;1.00;0.60;;;;;;;20.56;36.15;100520.94;5020622;28;20640;-69
2023/03/06 06:53:44;;;;;;;1.77;0.70;;;;;;;20.59;36.05;100525.16;5021803;28;20041;-69
2023/03/06 06:56:11;;;;;;;0.82;0.45;;;;;;;20.50;36.10;100527.09;5019011;28;20250;-69
2023/03/06 06:58:37;;;;;;;2.58;0.85;;;;;;;20.44;36.04;100522.38;5018369;28;20870;-69
2023/03/06 07:01:05;;;;;;;0.73;0.60;;;;;;;20.32;36.23;100521.06;5019705;28;20087;-69
2023/03/06 07:03:33;;;;;;;1.15;0.60;;;;;;;20.32;36.47;100523.78;5021076;28;20052;-69
2023/03/06 07:05:59;;;;;;;0.70;0.50;;;;;;;20.35;36.46;100534.34;5020146;28;20079;-69
2023/03/06 07:08:26;;;;;;;0.45;0.38;;;;;;;20.35;36.26;100541.66;5017667;28;20042;-69
2023/03/06 07:10:52;;;;;;;0.77;0.50;;;;;;;20.25;36.15;100540.03;5021232;28;20128;-69
2023/03/06 07:13:19;;;;;;;0.65;0.40;;;;;;;20.23;36.45;100552.97;5019482;28;20053;-69
2023/03/06 07:15:46;;;;;;;1.02;0.40;;;;;;;20.16;36.13;100546.53;5018592;28;20402;-69
2023/03/06 07:18:12;;;;;;;0.70;0.50;;;;;;;20.24;36.97;100551.09;5019571;28;20054;-69
2023/03/06 07:20:39;;;;;;;0.80;0.60;;;;;;;20.36;36.23;100552.41;5019676;28;20490;-69
2023/03/06 07:23:11;;;;;;;0.68;0.50;;;;;;;20.48;36.49;100556.44;5026530;28;20033;-71
2023/03/06 07:25:38;;;;;;;1.58;0.55;;;;;;;20.46;36.31;100555.78;5025962;28;20049;-69
2023/03/06 07:28:05;;;;;;;0.77;0.68;;;;;;;20.44;36.71;100551.53;5029296;28;20098;-69
2023/03/06 07:30:32;;;;;;;0.52;0.50;;;;;;;20.42;35.89;100550.88;5024593;28;20050;-69
2023/03/06 07:32:58;;;;;;;1.10;0.68;;;;;;;20.40;36.20;100545.59;5020722;28;20071;-69
2023/03/06 07:35:25;;;;;;;0.85;0.45;;;;;;;20.39;36.13;100549.34;5019900;28;20049;-69
2023/03/06 07:37:53;;;;;;;1.42;0.70;;;;;;;20.27;36.12;100548.03;5023484;28;20076;-69
2023/03/06 07:40:20;;;;;;;0.93;0.50;;;;;;;20.18;35.97;100549.09;5020305;28;20049;-69
2023/03/06 07:42:46;;;;;;;0.68;0.40;;;;;;;20.14;36.32;100550.47;5018474;28;20041;-69
2023/03/06 07:45:16;;;;;;;1.00;0.60;;;;;;;20.10;36.14;100543.69;5020818;28;20128;-69
2023/03/06 07:47:44;;;;;;;0.80;0.50;;;;;;;20.08;36.51;100543.88;5016764;28;20052;-68
2023/03/06 07:50:11;;;;;;;0.52;0.40;;;;;;;20.06;36.48;100543.16;5021637;28;20140;-68
2023/03/06 07:52:37;;;;;;;0.82;0.60;;;;;;;20.19;36.45;100542.63;5020239;28;20486;-68
2023/03/06 07:55:04;;;;;;;0.77;0.47;;;;;;;20.29;36.41;100548.69;5018603;28;20045;-69
2023/03/06 07:57:31;;;;;;;1.02;0.70;;;;;;;20.37;36.64;100545.91;5017416;28;20045;-69
2023/03/06 07:59:57;;;;;;;1.08;0.50;;;;;;;20.37;36.13;100547.78;5018656;28;20079;-69
2023/03/06 08:02:24;;;;;;;0.90;0.50;;;;;;;20.40;36.14;100547.47;5017677;28;20091;-69
2023/03/06 08:04:52;;;;;;;1.00;0.60;;;;;;;20.37;36.39;100550.53;5022444;28;20045;-69
2023/03/06 08:07:19;;;;;;;1.63;0.60;;;;;;;20.34;35.93;100550.88;5017810;28;20038;-69
2023/03/06 08:09:45;;;;;;;1.02;0.40;;;;;;;20.26;35.81;100549.91;5021166;28;20096;-68
2023/03/06 08:12:12;;;;;;;0.60;0.45;;;;;;;20.17;36.13;100555.56;5019423;28;20045;-69
2023/03/06 08:14:41;;;;;;;0.60;0.38;;;;;;;20.22;36.26;100561.34;5011193;28;20469;-69
2023/03/06 08:17:07;;;;;;;5.10;0.60;;;;;;;20.41;36.39;100560.06;5018408;28;20049;-71
2023/03/06 08:19:34;;;;;;;1.23;0.60;;;;;;;20.49;36.54;100560.03;5019954;28;20041;-70
2023/03/06 08:22:00;;;;;;;0.65;0.50;;;;;;;20.35;36.78;100558.03;5019733;28;20048;-71
2023/03/06 08:24:27;;;;;;;0.45;0.35;;;;;;;20.25;36.12;100553.66;5014937;28;20046;-70
2023/03/06 08:26:53;;;;;;;0.65;0.47;;;;;;;20.19;36.67;100551.66;5009719;28;20282;-70
2023/03/06 08:29:20;;;;;;;0.85;0.47;;;;;;;20.16;35.86;100559.31;5016451;28;20042;-70
2023/03/06 08:31:47;;;;;;;0.60;0.40;;;;;;;20.16;36.92;100559.31;5008469;28;20038;-69
2023/03/06 08:34:16;;;;;;;0.63;0.50;;;;;;;20.15;36.56;100561.22;5008564;28;20045;-70
2023/03/06 08:36:43;;;;;;;0.73;0.50;;;;;;;20.10;36.81;100552.72;5010112;28;20056;-68
2023/03/06 08:39:09;;;;;;;1.77;0.50;;;;;;;20.24;37.16;100557.41;5018732;28;20453;-71
2023/03/06 08:41:36;;;;;;;1.20;0.50;;;;;;;20.27;36.59;100558.94;5004860;28;20068;-69
2023/03/06 08:44:03;;;;;;;0.45;0.45;;;;;;;20.39;37.29;100553.91;5024726;28;20049;-69
2023/03/06 08:46:31;;;;;;;3.17;1.50;;;;;;;20.34;36.83;100565.38;5018329;28;20045;-70
2023/03/06 08:48:57;;;;;;;1.27;0.60;;;;;;;20.46;36.85;100563.13;5024217;28;20049;-69
2023/03/06 08:51:25;;;;;;;2.53;0.82;;;;;;;20.39;36.76;100565.72;5033316;28;20053;-68
2023/03/06 08:53:52;;;;;;;1.00;0.90;;;;;;;20.52;37.10;100565.97;5018790;28;20049;-69
2023/03/06 08:56:24;;;;;;;1.88;1.13;;;;;;;20.53;36.40;100564.09;5017116;28;20112;-70
2023/03/06 08:58:51;;;;;;;1.58;0.80;;;;;;;20.45;36.47;100565.00;5025610;28;20049;-70
2023/03/06 09:01:30;;;;;;;1.40;0.90;;;;;;;20.45;36.75;100559.53;5018612;28;20053;-69
2023/03/06 09:03:59;;;;;;;0.90;0.77;;;;;;;20.55;37.07;100553.84;5020747;28;20046;-72
2023/03/06 09:06:28;;;;;;;1.17;0.70;;;;;;;20.64;36.63;100550.03;5022063;28;20057;-69
2023/03/06 09:08:55;;;;;;;0.70;0.60;;;;;;;20.60;36.50;100543.25;5016503;28;20049;-69
2023/03/06 09:11:23;;;;;;;2.05;0.60;;;;;;;20.44;36.43;100543.34;5016849;28;20038;-69
2023/03/06 09:13:52;;;;;;;1.40;0.60;;;;;;;20.40;36.42;100542.84;5020489;28;20069;-69
2023/03/06 09:16:18;;;;;;;2.88;0.68;;;;;;;20.39;36.54;100538.44;5015688;28;20046;-70
2023/03/06 09:18:45;;;;;;;0.77;0.47;;;;;;;20.46;37.12;100544.03;5018321;28;20053;-70
2023/03/06 09:21:12;;;;;;;0.80;0.50;;;;;;;20.50;36.54;100542.63;5018409;28;20050;-70
2023/03/06 09:23:38;;;;;;;1.20;0.60;;;;;;;20.51;36.42;100547.91;5011861;28;20084;-70
2023/03/06 09:26:06;;;;;;;1.00;0.60;;;;;;;20.53;36.48;100534.09;5016851;28;20042;-70
2023/03/06 09:28:37;;;;;;;0.80;0.40;;;;;;;20.50;36.65;100542.63;5022131;28;20405;-70
2023/03/06 09:31:11;;;;;;;0.90;0.47;;;;;;;20.50;37.15;100543.47;5008916;28;20049;-69
2023/03/06 09:33:38;;;;;;;0.65;0.40;;;;;;;20.52;36.90;100549.59;5009595;28;20042;-70
2023/03/06 09:36:06;;;;;;;1.20;0.60;;;;;;;20.44;37.06;100551.53;5023053;28;20045;-71
2023/03/06 09:38:32;;;;;;;0.80;0.40;;;;;;;20.45;36.92;100555.97;5026178;28;20820;-70
2023/03/06 09:41:07;;;;;;;0.90;0.40;;;;;;;20.50;36.73;100565.31;5012227;28;20053;-70
2023/03/06 09:43:40;;;;;;;0.47;0.30;;;;;;;20.47;36.69;100549.28;5016647;28;20054;-69
2023/03/06 09:46:19;;;;;;;2.80;0.40;;;;;;;20.43;37.19;100555.28;5012885;28;20129;-69
2023/03/06 09:49:17;;;;;;;1.63;0.65;;;;;;;20.47;37.21;100548.44;5015516;28;20034;-70
2023/03/06 09:52:15;;;;;;;1.58;0.40;;;;;;;20.57;36.76;100543.59;5006461;28;20088;-70
2023/03/06 09:54:50;;;;;;;1.30;0.45;;;;;;;20.62;37.04;100554.81;5022813;28;20041;-69
2023/03/06 09:57:27;;;;;;;1.85;0.70;;;;;;;20.80;37.02;100549.91;5022277;28;20042;-70
2023/03/06 09:59:56;;;;;;;2.05;0.50;;;;;;;20.89;37.22;100553.44;5012048;28;20049;-70
2023/03/06 10:02:25;;;;;;;0.80;0.50;;;;;;;20.97;36.94;100547.94;5011289;28;20054;-70
2023/03/06 10:05:00;;;;;;;1.52;0.50;;;;;;;21.01;36.58;100559.31;5011615;28;20041;-69
2023/03/06 10:07:48;;;;;;;4.50;0.63;;;;;;;21.08;36.30;100550.22;5010646;28;20096;-70
2023/03/06 10:10:22;;;;;;;2.25;0.60;;;;;;;21.14;36.43;100554.94;5011480;28;20060;-70
2023/03/06 10:13:05;;;;;;;3.13;0.60;;;;;;;21.09;35.97;100551.91;5011349;28;20038;-70
2023/03/06 10:15:34;;;;;;;2.13;0.40;;;;;;;21.14;35.81;100548.63;5007557;28;20052;-73
2023/03/06 10:18:03;;;;;;;3.05;0.68;;;;;;;21.04;35.80;100545.31;5011609;28;20052;-75
2023/03/06 10:20:44;;;;;;;0.80;0.50;;;;;;;21.00;35.48;100547.56;5021938;28;20404;-70
2023/03/06 10:23:39;;;;;;;1.02;0.50;;;;;;;21.18;35.66;100547.22;5019439;28;20034;-68
2023/03/06 10:26:19;;;;;;;1.80;0.85;;;;;;;21.31;35.08;100550.19;5020993;28;20038;-69
2023/03/06 10:29:17;;;;;;;0.90;0.40;;;;;;;21.47;35.05;100546.44;5015184;28;20037;-69
2023/03/06 10:31:51;;;;;;;1.40;0.47;;;;;;;21.39;35.23;100552.84;5016080;28;20048;-69
2023/03/06 10:34:23;;;;;;;0.82;0.38;;;;;;;21.44;35.31;100544.09;5018125;28;20046;-69
2023/03/06 10:36:50;;;;;;;1.27;0.30;;;;;;;21.55;34.94;100541.78;5019863;28;20605;-69
2023/03/06 10:39:19;;;;;;;1.35;0.60;;;;;;;21.73;35.07;100543.28;5017965;28;20485;-69
2023/03/06 10:41:48;;;;;;;0.95;0.50;;;;;;;21.89;34.78;100545.81;5017728;28;20128;-69
2023/03/06 10:44:14;;;;;;;1.67;0.55;;;;;;;21.98;34.51;100547.41;5020077;28;20041;-68
2023/03/06 10:46:44;;;;;;;1.15;0.30;;;;;;;22.03;34.35;100535.94;5014221;28;20042;-70
2023/03/06 10:49:13;;;;;;;1.17;0.30;;;;;;;22.04;34.26;100538.47;5015354;28;20041;-71
2023/03/06 10:51:55;;;;;;;0.28;0.20;;;;;;;22.04;34.40;100538.47;5014118;28;20125;-70
2023/03/06 10:54:22;;;;;;;0.88;0.70;;;;;;;22.08;34.32;100534.31;5009295;28;20055;-70
2023/03/06 10:56:48;;;;;;;0.32;0.30;;;;;;;22.03;34.32;100544.16;5011319;28;20129;-72
2023/03/06 10:59:28;;;;;;;1.27;0.43;;;;;;;21.96;33.94;100546.75;5010787;28;20052;-69
2023/03/06 11:02:23;;;;;;;1.65;0.25;;;;;;;22.09;34.30;100535.19;5020317;28;20037;-70
2023/03/06 11:04:52;;;;;;;4.38;0.50;;;;;;;22.14;34.19;100541.75;5020539;28;20104;-77
2023/03/06 11:07:28;;;;;;;0.28;0.20;;;;;;;21.95;34.14;100546.94;5024545;28;20072;-69
2023/03/06 13:56:05;;;;;;;0.40;0.40;;;;;;;;;;5057823;27;20489;-72
2023/03/06 13:59:57;;;;;;;0.80;0.43;;;;;;;-144.23;100.00;59614.22;5125874;27;96502;-70
2023/03/06 14:03:59;;;;;;;0.30;0.25;;;;;;;;;;5141656;27;20423;-71
2023/03/06 14:06:34;;;;;;;0.88;0.35;;;;;;;;;;5089764;27;100063;-80
2023/03/06 14:12:27;;;;;;;0.30;0.30;;;;;;;19.30;41.29;100369.44;5001522;28;97102;-72
2023/03/06 14:14:56;;;;;;;0.40;0.20;;;;;;;19.12;41.88;100364.22;4995778;27;97299;-70
2023/03/06 14:43:51;;;;;;;0.32;0.30;;;;;;;18.93;42.37;100332.84;5019513;27;96829;-75
2023/03/06 14:46:20;;;;;;;0.68;0.28;;;;;;;18.98;42.76;100335.03;5011181;28;97238;-73
2023/03/06 14:48:48;;;;;;;2.70;0.40;;;;;;;19.14;42.67;100345.00;5020796;28;97881;-75
2023/03/06 14:51:24;;;;;;;0.68;0.30;;;;;;;19.29;42.16;100329.63;5003337;28;97649;-74
2023/03/06 14:53:52;;;;;;;0.98;0.30;;;;;;;19.37;41.95;100329.59;4981677;28;96727;-75